createdAt,value
2022-09-25T00:00:28.658Z,52.30
2022-09-25T00:03:22.857Z,52.20
2022-09-25T00:06:17.883Z,52.20
2022-09-25T00:09:10.876Z,52.20
2022-09-25T00:12:03.848Z,52.20
2022-09-25T00:14:58.353Z,52.20
2022-09-25T00:17:52.180Z,52.20
2022-09-25T00:20:46.502Z,52.30
2022-09-25T00:23:40.341Z,52.20
2022-09-25T00:26:36.483Z,52.30
2022-09-25T00:29:30.851Z,52.20
2022-09-25T00:32:25.617Z,52.20
2022-09-25T00:35:18.501Z,52.20
2022-09-25T00:38:11.574Z,52.20
2022-09-25T00:41:06.356Z,52.20
2022-09-25T00:44:02.383Z,52.20
2022-09-25T00:46:55.986Z,52.30
2022-09-25T00:49:51.645Z,52.30
2022-09-25T00:52:45.351Z,52.20
2022-09-25T00:55:40.059Z,52.30
2022-09-25T00:58:36.026Z,52.30
2022-09-25T01:01:28.830Z,52.30
2022-09-25T01:04:23.076Z,52.20
2022-09-25T01:07:18.080Z,52.30
2022-09-25T01:10:12.791Z,52.30
2022-09-25T01:13:06.866Z,52.20
2022-09-25T01:16:06.034Z,52.20
2022-09-25T01:19:12.155Z,52.20
2022-09-25T01:22:16.590Z,52.20
2022-09-25T01:25:20.463Z,52.20
2022-09-25T01:28:29.910Z,52.20
2022-09-25T01:31:34.815Z,52.20
2022-09-25T01:34:31.312Z,52.20
2022-09-25T01:37:29.822Z,52.30
2022-09-25T01:40:29.030Z,52.20
2022-09-25T01:43:27.058Z,52.20
2022-09-25T01:46:21.848Z,52.30
2022-09-25T01:49:27.423Z,52.30
2022-09-25T01:52:27.082Z,52.30
2022-09-25T01:55:27.401Z,52.30
2022-09-25T01:58:24.873Z,52.30
2022-09-25T02:01:23.759Z,52.20
2022-09-25T02:04:22.615Z,52.20
2022-09-25T02:07:22.098Z,52.20
2022-09-25T02:10:19.025Z,52.20
2022-09-25T02:13:15.564Z,52.20
2022-09-25T02:16:12.229Z,52.20
2022-09-25T02:19:25.171Z,52.30
2022-09-25T02:22:24.545Z,52.30
2022-09-25T02:25:26.188Z,52.30
2022-09-25T02:28:19.936Z,52.30
2022-09-25T02:31:14.754Z,52.30
2022-09-25T02:34:13.739Z,52.30
2022-09-25T02:37:11.921Z,52.30
2022-09-25T02:40:06.939Z,52.30
2022-09-25T02:43:10.032Z,52.30
2022-09-25T02:46:10.394Z,52.30
2022-09-25T02:49:11.120Z,52.30
2022-09-25T02:52:09.172Z,52.30
2022-09-25T02:55:11.015Z,52.20
2022-09-25T02:58:08.083Z,52.20
2022-09-25T03:01:03.380Z,52.20
2022-09-25T03:03:59.588Z,52.20
2022-09-25T03:06:54.445Z,52.30
2022-09-25T03:09:50.937Z,52.30
2022-09-25T03:12:45.364Z,52.20
2022-09-25T03:15:38.840Z,52.30
2022-09-25T03:18:32.503Z,52.20
2022-09-25T03:21:25.547Z,52.20
2022-09-25T03:24:19.213Z,52.10
2022-09-25T03:27:12.461Z,52.20
2022-09-25T03:30:08.216Z,52.20
2022-09-25T03:33:01.503Z,52.20
2022-09-25T03:36:06.773Z,52.20
2022-09-25T03:39:00.416Z,52.20
2022-09-25T03:41:53.828Z,52.20
2022-09-25T03:44:47.127Z,52.20
2022-09-25T03:47:41.019Z,52.80
2022-09-25T03:50:34.082Z,52.20
2022-09-25T03:53:27.226Z,52.20
2022-09-25T03:56:24.140Z,52.10
2022-09-25T03:59:17.013Z,52.20
2022-09-25T04:02:10.601Z,52.20
2022-09-25T04:05:05.619Z,52.20
2022-09-25T04:08:00.631Z,52.20
2022-09-25T04:10:56.530Z,52.20
2022-09-25T04:13:50.001Z,52.20
2022-09-25T04:16:43.411Z,52.20
2022-09-25T04:19:36.855Z,52.20
2022-09-25T04:22:31.242Z,52.30
2022-09-25T04:25:25.575Z,52.20
2022-09-25T04:28:18.843Z,52.20
2022-09-25T04:31:11.716Z,52.10
2022-09-25T04:34:04.749Z,52.20
2022-09-25T04:36:57.897Z,52.10
2022-09-25T04:39:52.341Z,52.20
2022-09-25T04:42:46.193Z,52.20
2022-09-25T04:45:39.442Z,52.20
2022-09-25T04:48:34.088Z,52.20
2022-09-25T04:51:26.911Z,52.30
2022-09-25T04:54:19.880Z,52.20
2022-09-25T04:57:38.749Z,52.30
2022-09-25T05:00:33.009Z,52.30
2022-09-25T05:03:25.524Z,52.30
2022-09-25T05:06:18.940Z,52.30
2022-09-25T05:09:12.191Z,52.30
2022-09-25T05:12:05.492Z,52.30
2022-09-25T05:15:00.423Z,52.30
2022-09-25T05:18:01.113Z,52.30
2022-09-25T05:20:54.574Z,52.30
2022-09-25T05:23:47.856Z,52.30
2022-09-25T05:26:42.320Z,52.30
2022-09-25T05:29:35.988Z,52.30
2022-09-25T05:32:30.951Z,52.30
2022-09-25T05:35:24.471Z,52.30
2022-09-25T05:38:18.347Z,52.30
2022-09-25T05:41:12.471Z,52.30
2022-09-25T05:44:09.795Z,52.30
2022-09-25T05:47:04.021Z,52.30
2022-09-25T05:49:58.843Z,52.30
2022-09-25T05:52:56.973Z,52.30
2022-09-25T05:55:51.596Z,52.30
2022-09-25T05:58:44.866Z,52.30
2022-09-25T06:01:38.450Z,52.30
2022-09-25T06:04:32.035Z,52.40
2022-09-25T06:07:26.304Z,52.20
2022-09-25T06:10:18.924Z,52.30
2022-09-25T06:13:11.863Z,52.30
2022-09-25T06:16:06.327Z,52.20
2022-09-25T06:19:00.009Z,52.20
2022-09-25T06:21:52.912Z,52.30
2022-09-25T06:24:48.657Z,52.20
2022-09-25T06:27:41.942Z,52.30
2022-09-25T06:30:38.192Z,52.20
2022-09-25T06:33:31.117Z,52.10
2022-09-25T06:36:26.158Z,52.20
2022-09-25T06:39:19.819Z,52.10
2022-09-25T06:42:14.452Z,52.20
2022-09-25T06:45:10.815Z,52.20
2022-09-25T06:48:07.020Z,52.20
2022-09-25T06:51:01.392Z,52.10
2022-09-25T06:53:55.983Z,52.20
2022-09-25T06:56:50.443Z,52.20
2022-09-25T06:59:45.737Z,52.10
2022-09-25T07:03:05.007Z,52.10
2022-09-25T07:06:01.032Z,52.10
2022-09-25T07:08:53.994Z,52.10
2022-09-25T07:11:48.752Z,52.30
2022-09-25T07:14:43.745Z,52.20
2022-09-25T07:17:38.508Z,52.20
2022-09-25T07:20:32.262Z,52.30
2022-09-25T07:23:25.242Z,52.30
2022-09-25T07:26:22.189Z,52.30
2022-09-25T07:29:16.326Z,52.20
2022-09-25T07:32:08.916Z,52.30
2022-09-25T07:35:03.280Z,52.20
2022-09-25T07:37:57.444Z,52.20
2022-09-25T07:40:54.454Z,52.10
2022-09-25T07:43:47.882Z,52.00
2022-09-25T07:46:44.862Z,52.00
2022-09-25T07:49:39.404Z,52.00
2022-09-25T07:52:34.708Z,52.00
2022-09-25T07:55:29.177Z,52.00
2022-09-25T07:58:21.827Z,52.00
2022-09-25T08:01:15.332Z,52.00
2022-09-25T08:04:07.730Z,52.00
2022-09-25T08:07:01.079Z,52.00
2022-09-25T08:09:55.243Z,52.00
2022-09-25T08:12:48.175Z,52.00
2022-09-25T08:15:42.146Z,52.00
2022-09-25T08:18:35.089Z,52.00
2022-09-25T08:21:28.662Z,52.00
2022-09-25T08:24:22.296Z,52.00
2022-09-25T08:27:16.932Z,52.00
2022-09-25T08:30:12.450Z,52.00
2022-09-25T08:33:05.658Z,52.00
2022-09-25T08:36:00.176Z,52.00
2022-09-25T08:38:56.028Z,52.00
2022-09-25T08:41:51.190Z,52.60
2022-09-25T08:45:16.799Z,52.00
2022-09-25T08:48:20.529Z,52.00
2022-09-25T08:51:14.507Z,52.00
2022-09-25T08:54:08.465Z,51.90
2022-09-25T08:57:13.242Z,51.90
2022-09-25T09:00:14.892Z,52.00
2022-09-25T09:03:12.114Z,51.90
2022-09-25T09:06:08.267Z,51.80
2022-09-25T09:09:07.580Z,51.90
2022-09-25T09:12:07.243Z,51.90
2022-09-25T09:15:15.684Z,51.90
2022-09-25T09:18:19.454Z,51.90
2022-09-25T09:21:25.463Z,51.90
2022-09-25T09:24:19.711Z,52.00
2022-09-25T09:27:29.893Z,51.90
2022-09-25T09:30:29.303Z,52.00
2022-09-25T09:33:35.196Z,51.90
2022-09-25T09:36:36.070Z,52.00
2022-09-25T09:39:36.133Z,52.00
2022-09-25T09:42:37.950Z,51.90
2022-09-25T09:45:44.358Z,52.00
2022-09-25T09:48:43.303Z,52.00
2022-09-25T09:51:43.483Z,52.00
2022-09-25T09:54:42.847Z,52.00
2022-09-25T09:57:51.838Z,52.00
2022-09-25T10:00:48.759Z,52.00
2022-09-25T10:03:44.901Z,52.00
2022-09-25T10:06:40.107Z,52.10
2022-09-25T10:09:33.548Z,52.10
2022-09-25T10:12:30.994Z,52.10
2022-09-25T10:15:31.650Z,52.10
2022-09-25T10:18:31.670Z,52.20
2022-09-25T10:21:28.045Z,52.20
2022-09-25T10:24:52.998Z,52.20
2022-09-25T10:27:47.948Z,52.30
2022-09-25T10:30:47.802Z,52.20
2022-09-25T10:33:43.015Z,52.30
2022-09-25T10:36:39.816Z,52.40
2022-09-25T10:39:50.615Z,52.30
2022-09-25T10:42:44.199Z,52.40
2022-09-25T10:45:40.729Z,52.30
2022-09-25T10:49:01.968Z,52.30
2022-09-25T10:52:06.354Z,52.50
2022-09-25T10:55:16.310Z,52.60
2022-09-25T10:58:14.986Z,53.20
2022-09-25T11:01:13.446Z,53.20
2022-09-25T11:04:16.371Z,52.60
2022-09-25T11:07:20.895Z,52.70
2022-09-25T11:10:21.144Z,52.80
2022-09-25T11:13:24.201Z,52.70
2022-09-25T11:16:18.150Z,52.70
2022-09-25T11:19:14.237Z,52.70
2022-09-25T11:22:17.985Z,52.70
2022-09-25T11:25:17.418Z,52.70
2022-09-25T11:28:14.812Z,52.70
2022-09-25T11:31:22.341Z,52.70
2022-09-25T11:34:25.355Z,52.70
2022-09-25T11:37:25.632Z,52.70
2022-09-25T11:40:50.206Z,52.70
2022-09-25T11:43:58.395Z,52.80
2022-09-25T11:47:01.060Z,52.70
2022-09-25T11:49:58.165Z,52.80
2022-09-25T11:53:02.272Z,52.70
2022-09-25T11:56:07.512Z,52.70
2022-09-25T11:59:17.871Z,52.70
2022-09-25T12:02:22.207Z,52.80
2022-09-25T12:05:34.006Z,52.70
2022-09-25T12:08:44.044Z,52.70
2022-09-25T12:11:46.475Z,52.80
2022-09-25T12:14:48.491Z,52.70
2022-09-25T12:17:51.916Z,52.70
2022-09-25T12:20:53.557Z,52.60
2022-09-25T12:23:54.419Z,52.60
2022-09-25T12:26:56.337Z,52.60
2022-09-25T12:30:09.321Z,52.60
2022-09-25T12:33:22.597Z,52.70
2022-09-25T12:36:22.400Z,52.70
2022-09-25T12:39:29.979Z,52.60
2022-09-25T12:42:30.945Z,52.70
2022-09-25T12:45:32.729Z,52.70
2022-09-25T12:48:34.230Z,52.70
2022-09-25T12:51:35.062Z,52.70
2022-09-25T12:54:35.484Z,52.70
2022-09-25T12:57:32.635Z,52.70
2022-09-25T13:00:29.371Z,52.90
2022-09-25T13:03:43.302Z,52.90
2022-09-25T13:06:45.390Z,52.80
2022-09-25T13:09:44.762Z,52.80
2022-09-25T13:12:38.997Z,52.90
2022-09-25T13:15:35.092Z,52.80
2022-09-25T13:18:30.649Z,52.70
2022-09-25T13:21:26.613Z,52.80
2022-09-25T13:24:19.876Z,52.70
2022-09-25T13:27:19.567Z,52.70
2022-09-25T13:30:22.553Z,52.70
2022-09-25T13:33:22.138Z,52.70
2022-09-25T13:36:32.080Z,52.70
2022-09-25T13:39:49.124Z,52.70
2022-09-25T13:42:46.331Z,52.70
2022-09-25T13:45:41.008Z,52.70
2022-09-25T13:48:37.603Z,52.70
2022-09-25T13:51:37.337Z,52.70
2022-09-25T13:54:34.491Z,52.70
2022-09-25T13:58:03.546Z,52.70
2022-09-25T14:00:58.945Z,52.70
2022-09-25T14:03:52.562Z,52.70
2022-09-25T14:06:48.301Z,52.70
2022-09-25T14:09:45.885Z,52.70
2022-09-25T14:12:44.137Z,52.70
2022-09-25T14:15:40.873Z,52.80
2022-09-25T14:18:40.928Z,52.80
2022-09-25T14:21:35.287Z,52.80
2022-09-25T14:24:31.377Z,52.90
2022-09-25T14:27:27.767Z,52.80
2022-09-25T14:30:21.700Z,52.80
2022-09-25T14:33:47.480Z,52.90
2022-09-25T14:36:53.944Z,52.90
2022-09-25T14:39:56.094Z,53.00
2022-09-25T14:43:16.540Z,52.80
2022-09-25T14:46:13.844Z,52.80
2022-09-25T14:49:24.790Z,52.80
2022-09-25T14:52:23.969Z,52.70
2022-09-25T14:55:21.110Z,52.70
2022-09-25T14:58:18.807Z,52.70
2022-09-25T15:01:22.839Z,52.70
2022-09-25T15:04:26.896Z,52.70
2022-09-25T15:07:24.456Z,52.70
2022-09-25T15:10:29.554Z,52.70
2022-09-25T15:13:22.499Z,52.70
2022-09-25T15:16:36.949Z,52.70
2022-09-25T15:19:34.937Z,52.60
2022-09-25T15:22:33.935Z,52.70
2022-09-25T15:25:30.847Z,52.60
2022-09-25T15:28:27.417Z,52.60
2022-09-25T15:31:20.320Z,52.60
2022-09-25T15:34:15.112Z,52.60
2022-09-25T15:37:20.838Z,52.60
2022-09-25T15:40:25.520Z,52.60
2022-09-25T15:43:19.758Z,52.50
2022-09-25T15:46:37.878Z,52.50
2022-09-25T15:49:34.877Z,52.50
2022-09-25T15:52:33.952Z,52.60
2022-09-25T15:55:32.925Z,52.60
2022-09-25T15:58:26.393Z,52.50
2022-09-25T16:01:40.255Z,52.50
2022-09-25T16:04:49.475Z,52.50
2022-09-25T16:07:44.458Z,52.50
2022-09-25T16:10:37.155Z,52.50
2022-09-25T16:13:31.216Z,52.50
2022-09-25T16:16:29.396Z,52.50
2022-09-25T16:19:32.236Z,52.50
2022-09-25T16:22:25.744Z,52.50
2022-09-25T16:25:25.663Z,52.40
2022-09-25T16:28:21.402Z,52.50
2022-09-25T16:31:14.628Z,52.50
2022-09-25T16:34:11.055Z,52.50
2022-09-25T16:37:06.726Z,52.50
2022-09-25T16:40:25.287Z,52.50
2022-09-25T16:43:27.740Z,52.50
2022-09-25T16:46:23.178Z,52.50
2022-09-25T16:49:18.447Z,52.50
2022-09-25T16:52:20.198Z,52.50
2022-09-25T16:55:22.733Z,52.50
2022-09-25T16:58:15.912Z,52.50
2022-09-25T17:01:11.393Z,52.50
2022-09-25T17:04:04.326Z,52.50
2022-09-25T17:06:58.843Z,52.50
2022-09-25T17:09:52.690Z,52.50
2022-09-25T17:12:51.237Z,52.50
2022-09-25T17:15:47.522Z,52.50
2022-09-25T17:18:43.054Z,53.00
2022-09-25T17:21:36.353Z,52.40
2022-09-25T17:24:30.508Z,52.40
2022-09-25T17:27:23.466Z,52.40
2022-09-25T17:30:16.393Z,52.40
2022-09-25T17:33:15.839Z,52.40
2022-09-25T17:36:13.753Z,52.40
2022-09-25T17:39:06.458Z,52.40
2022-09-25T17:41:59.731Z,52.50
2022-09-25T17:44:52.549Z,52.40
2022-09-25T17:47:45.808Z,52.40
2022-09-25T17:50:39.547Z,52.40
2022-09-25T17:53:35.141Z,53.00
2022-09-25T17:56:29.531Z,52.40
2022-09-25T17:59:22.808Z,52.40
2022-09-25T18:02:17.927Z,52.40
2022-09-25T18:05:16.468Z,52.30
2022-09-25T18:08:09.766Z,52.40
2022-09-25T18:11:03.973Z,52.30
2022-09-25T18:14:01.046Z,52.30
2022-09-25T18:16:54.701Z,52.40
2022-09-25T18:20:04.874Z,52.40
2022-09-25T18:22:58.328Z,52.90
2022-09-25T18:25:51.788Z,52.30
2022-09-25T18:28:46.013Z,52.30
2022-09-25T18:31:39.647Z,52.30
2022-09-25T18:34:32.621Z,52.30
2022-09-25T18:37:25.773Z,52.30
2022-09-25T18:40:20.730Z,52.30
2022-09-25T18:43:13.835Z,52.30
2022-09-25T18:46:08.425Z,52.20
2022-09-25T18:49:01.333Z,52.20
2022-09-25T18:51:55.625Z,52.80
2022-09-25T18:54:49.101Z,52.20
2022-09-25T18:57:43.154Z,52.20
2022-09-25T19:00:36.445Z,52.20
2022-09-25T19:03:30.908Z,52.20
2022-09-25T19:06:24.618Z,52.20
2022-09-25T19:09:19.901Z,52.20
2022-09-25T19:12:15.175Z,52.20
2022-09-25T19:15:09.736Z,52.20
2022-09-25T19:18:02.652Z,52.20
2022-09-25T19:20:56.446Z,52.20
2022-09-25T19:23:50.418Z,52.20
2022-09-25T19:26:44.298Z,52.20
2022-09-25T19:29:37.692Z,52.10
2022-09-25T19:32:31.094Z,52.10
2022-09-25T19:35:24.665Z,52.10
2022-09-25T19:38:18.640Z,52.10
2022-09-25T19:41:14.794Z,52.10
2022-09-25T19:44:13.381Z,52.10
2022-09-25T19:47:06.418Z,52.00
2022-09-25T19:49:59.927Z,52.00
2022-09-25T19:52:54.608Z,51.90
2022-09-25T19:55:54.179Z,52.00
2022-09-25T19:58:50.569Z,52.00
2022-09-25T20:01:44.755Z,51.90
2022-09-25T20:04:37.725Z,51.90
2022-09-25T20:07:30.595Z,51.80
2022-09-25T20:10:23.816Z,51.90
2022-09-25T20:13:18.973Z,51.80
2022-09-25T20:16:15.966Z,51.80
2022-09-25T20:19:09.689Z,51.80
2022-09-25T20:22:03.132Z,51.80
2022-09-25T20:24:57.442Z,51.70
2022-09-25T20:27:52.048Z,51.70
2022-09-25T20:30:47.118Z,51.70
2022-09-25T20:33:42.235Z,51.70
2022-09-25T20:36:38.964Z,51.70
2022-09-25T20:39:32.099Z,51.60
2022-09-25T20:42:26.398Z,51.70
2022-09-25T20:45:19.917Z,51.60
2022-09-25T20:48:18.119Z,51.60
2022-09-25T20:51:14.938Z,51.60
2022-09-25T20:54:10.621Z,51.60
2022-09-25T20:57:03.372Z,51.60
2022-09-25T20:59:56.805Z,51.60
2022-09-25T21:02:49.752Z,51.60
2022-09-25T21:05:46.566Z,51.60
2022-09-25T21:08:39.716Z,51.60
2022-09-25T21:11:33.873Z,52.20
2022-09-25T21:14:28.511Z,52.20
2022-09-25T21:17:21.826Z,51.60
2022-09-25T21:20:14.649Z,51.60
2022-09-25T21:23:09.095Z,51.60
2022-09-25T21:26:04.163Z,51.50
2022-09-25T21:29:00.300Z,51.60
2022-09-25T21:31:55.227Z,51.60
2022-09-25T21:34:48.643Z,51.60
2022-09-25T21:37:41.693Z,51.60
2022-09-25T21:40:36.364Z,51.50
2022-09-25T21:43:31.261Z,51.60
2022-09-25T21:46:26.331Z,51.60
2022-09-25T21:49:21.513Z,51.60
2022-09-25T21:52:14.845Z,51.60
2022-09-25T21:55:10.019Z,51.60
2022-09-25T21:58:06.121Z,51.60
2022-09-25T22:01:07.455Z,51.60
2022-09-25T22:04:01.194Z,51.50
2022-09-25T22:06:54.653Z,51.60
2022-09-25T22:09:48.237Z,51.60
2022-09-25T22:12:41.700Z,51.50
2022-09-25T22:15:36.392Z,51.50
2022-09-25T22:18:30.402Z,51.50
2022-09-25T22:21:25.263Z,51.50
2022-09-25T22:24:18.757Z,51.50
2022-09-25T22:27:12.072Z,51.50
2022-09-25T22:30:06.385Z,51.50
2022-09-25T22:33:01.100Z,51.50
2022-09-25T22:35:59.824Z,51.50
2022-09-25T22:38:52.640Z,51.50
2022-09-25T22:41:46.105Z,51.50
2022-09-25T22:44:39.908Z,51.50
2022-09-25T22:47:32.798Z,51.50
2022-09-25T22:50:27.296Z,51.40
2022-09-25T22:53:21.454Z,51.50
2022-09-25T22:56:17.551Z,51.40
2022-09-25T22:59:12.889Z,51.40
2022-09-25T23:02:05.759Z,51.40
2022-09-25T23:05:02.769Z,51.50
2022-09-25T23:08:00.138Z,51.40
2022-09-25T23:11:06.568Z,51.50
2022-09-25T23:14:03.044Z,51.40
2022-09-25T23:16:56.274Z,51.50
2022-09-25T23:19:50.216Z,51.40
2022-09-25T23:22:43.694Z,51.40
2022-09-25T23:25:38.475Z,51.40
2022-09-25T23:28:33.923Z,51.40
2022-09-25T23:31:27.269Z,51.50
2022-09-25T23:34:20.771Z,51.40
2022-09-25T23:37:14.603Z,51.40
2022-09-25T23:40:13.441Z,51.40
2022-09-25T23:43:10.849Z,51.50
2022-09-25T23:46:03.754Z,51.40
2022-09-25T23:48:57.261Z,51.40
2022-09-25T23:51:50.649Z,51.50
2022-09-25T23:54:43.910Z,51.40
2022-09-25T23:57:37.434Z,51.50
